Terminal Aerodrome Forecast
Issued by NWS Billings, MT

Home | Current Version | Previous Version | Graphics & Text | Print | Product List | Glossary On
Versions: 1 2 3 4 5 6 7 8 9 10 11 12 13 14 15 16 17 18 19 20 21 22 23 24 25 26 27 28 29 30 31 32 33 34 35 36 37
896
FTUS45 KBYZ 112111 AAA
TAFMLS
TAF AMD
KMLS 112111Z 1121/1218 35015G23KT P6SM FEW035 BKN100
     FM112300 35011KT P6SM BKN050
     FM120300 02007KT P6SM BKN030
     FM120900 05006KT 5SM BR OVC015=

USA.gov is the U.S. government's official web portal to all federal, state and local government web resources and services.